Terminal Aerodrome Forecast
Issued by NWS

Home | Current Version | Previous Version | Text Only | Print | Product List | Glossary On
Versions: 1 2 3 4 5 6 7 8 9 10 11 12 13 14
005
FTUS46 KSGX 221120
TAFCRQ
TAF
KCRQ 221120Z 2212/2312 VRB05KT P6SM VCSH SCT020 BKN035
      TEMPO 2212/2216 5SM -SHRA BKN020
     FM221700 25012KT P6SM VCSH BKN035
     FM230100 25008KT P6SM SCT020 BKN030=

USA.gov is the U.S. government's official web portal to all federal, state and local government web resources and services.